Time;durP1;ratioP1;P1;durP2;ratioP2;P2;SDS_P1;SDS_P2;PMS_P1;PMS_P2;Temp;Humidity;BMP_temperature;BMP_pressure;BME280_temperature;BME280_humidity;BME280_pressure;Samples;Min_cycle;Max_cycle;Signal;HPM_P1;HPM_P2
2023/02/15 00:03:01;;;;;;;20.40;13.13;;;;;;;3.24;68.17;99366.16;6338670;27;20293;-35
2023/02/15 00:06:05;;;;;;;19.63;13.67;;;;;;;3.27;68.08;99365.03;6353419;27;20226;-35
2023/02/15 00:09:07;;;;;;;18.17;13.40;;;;;;;3.28;67.81;99370.13;6334502;27;20209;-35
2023/02/15 00:12:09;;;;;;;20.87;13.67;;;;;;;3.28;67.87;99364.03;6353374;27;20204;-35
2023/02/15 00:15:12;;;;;;;20.73;14.77;;;;;;;3.23;68.20;99361.88;6348999;27;20205;-35
2023/02/15 00:18:15;;;;;;;22.73;14.53;;;;;;;3.20;68.40;99356.94;6329690;27;20213;-35
2023/02/15 00:21:17;;;;;;;22.33;14.23;;;;;;;3.21;68.86;99363.00;6352464;27;20589;-35
2023/02/15 00:24:19;;;;;;;26.60;17.20;;;;;;;3.17;68.28;99361.66;6352683;27;20775;-35
2023/02/15 00:27:21;;;;;;;23.23;14.60;;;;;;;3.17;68.40;99366.94;6348165;27;20978;-35
2023/02/15 00:30:23;;;;;;;22.70;14.93;;;;;;;3.17;68.26;99370.38;6345529;27;20669;-35
2023/02/15 00:33:25;;;;;;;21.97;15.43;;;;;;;3.17;68.18;99362.47;6328633;27;20301;-35
2023/02/15 00:36:27;;;;;;;26.67;17.23;;;;;;;3.00;68.58;99365.94;6319444;27;20224;-35
2023/02/15 00:39:29;;;;;;;24.13;16.70;;;;;;;2.85;68.91;99363.84;6332316;27;20626;-35
2023/02/15 00:42:33;;;;;;;23.10;15.83;;;;;;;2.82;68.60;99363.34;6330499;27;20770;-35
2023/02/15 00:45:35;;;;;;;20.70;14.80;;;;;;;2.78;68.47;99370.69;6347040;27;20232;-35
2023/02/15 00:48:36;;;;;;;22.03;14.63;;;;;;;2.81;68.83;99362.53;6334821;27;20244;-35
2023/02/15 00:51:39;;;;;;;20.97;14.37;;;;;;;2.78;68.79;99357.56;6332605;27;20239;-35
2023/02/15 00:54:41;;;;;;;21.13;14.27;;;;;;;2.84;68.77;99356.13;6344923;27;20724;-35
2023/02/15 00:57:43;;;;;;;22.47;14.70;;;;;;;2.90;68.48;99349.41;6333933;27;20228;-35
2023/02/15 01:00:47;;;;;;;25.67;15.87;;;;;;;2.68;68.29;99316.50;6317770;28;20333;-35
2023/02/15 01:03:49;;;;;;;23.20;15.07;;;;;;;2.57;68.39;99281.56;6335047;27;20699;-35
2023/02/15 01:06:51;;;;;;;20.57;13.33;;;;;;;2.90;68.40;99347.59;6331967;27;20864;-35
2023/02/15 01:09:53;;;;;;;22.73;15.30;;;;;;;2.93;68.46;99333.31;6328170;28;20225;-35
2023/02/15 01:12:56;;;;;;;23.07;15.43;;;;;;;2.72;68.34;99297.63;6324180;28;20233;-35
2023/02/15 01:15:58;;;;;;;21.03;14.60;;;;;;;2.99;68.09;99328.28;6340071;27;20317;-35
2023/02/15 01:19:02;;;;;;;22.23;15.33;;;;;;;2.99;68.24;99333.53;6327791;28;20236;-35
2023/02/15 01:22:05;;;;;;;21.03;14.17;;;;;;;2.42;68.32;99227.00;6339796;28;20727;-35
2023/02/15 01:25:09;;;;;;;22.23;14.83;;;;;;;3.04;68.29;99317.28;6330301;28;20232;-35
2023/02/15 01:28:11;;;;;;;23.97;16.10;;;;;;;2.78;67.95;99280.41;6338083;28;20326;-35
2023/02/15 01:31:16;;;;;;;21.47;14.50;;;;;;;2.97;68.09;99317.09;6350979;27;20232;-35
2023/02/15 01:34:19;;;;;;;21.80;14.23;;;;;;;2.74;68.16;99279.88;6337570;27;20226;-35
2023/02/15 01:37:21;;;;;;;18.97;13.40;;;;;;;2.72;67.92;99281.03;6355670;27;20235;-35
2023/02/15 01:40:24;;;;;;;20.80;14.60;;;;;;;2.89;67.92;99310.91;6325677;28;20232;-35
2023/02/15 01:43:44;;;;;;;22.13;15.60;;;;;;;2.92;67.99;99303.56;6316812;28;20229;-35
2023/02/15 01:46:52;;;;;;;21.47;14.83;;;;;;;2.94;67.97;99306.03;6354583;27;20234;-35
2023/02/15 01:50:18;;;;;;;26.37;15.90;;;;;;;2.89;67.88;99295.94;6338064;27;20277;-35
2023/02/15 01:53:47;;;;;;;27.03;16.93;;;;;;;2.80;68.32;99300.31;6329273;27;20234;-35
2023/02/15 01:56:49;;;;;;;22.10;15.23;;;;;;;2.76;68.34;99300.81;6352048;27;20221;-35
2023/02/15 01:59:56;;;;;;;20.50;14.53;;;;;;;2.75;68.67;99293.84;6323729;28;20225;-35
2023/02/15 02:02:58;;;;;;;21.07;15.17;;;;;;;2.75;68.54;99294.69;6326478;27;20220;-34
2023/02/15 02:06:01;;;;;;;22.03;14.77;;;;;;;2.74;68.57;99287.78;6338237;27;20283;-34
2023/02/15 02:09:03;;;;;;;24.80;16.03;;;;;;;2.69;68.82;99281.31;6353583;27;20687;-35
2023/02/15 02:12:07;;;;;;;22.17;15.10;;;;;;;2.74;68.98;99286.94;6338200;27;20866;-35
2023/02/15 02:15:09;;;;;;;21.37;14.23;;;;;;;2.75;69.05;99288.59;6352784;27;20209;-35
2023/02/15 02:18:35;;;;;;;20.77;14.40;;;;;;;2.76;69.05;99282.38;6315362;28;20253;-35
2023/02/15 02:21:40;;;;;;;22.80;15.03;;;;;;;2.80;68.92;99281.06;6337554;27;20232;-35
2023/02/15 02:24:59;;;;;;;23.20;16.13;;;;;;;2.75;68.73;99268.38;6331696;27;20602;-35
2023/02/15 02:28:30;;;;;;;22.53;15.53;;;;;;;2.71;68.56;99274.94;6351672;27;20641;-35
2023/02/15 02:32:03;;;;;;;23.70;14.53;;;;;;;2.72;68.33;99263.44;6340927;27;20238;-35
2023/02/15 02:35:36;;;;;;;22.20;14.90;;;;;;;2.76;68.63;99263.97;6316260;28;20266;-35
2023/02/15 02:38:56;;;;;;;22.20;15.13;;;;;;;2.77;68.90;99260.34;6313100;28;20323;-35
2023/02/15 02:42:09;;;;;;;21.73;14.50;;;;;;;2.66;68.53;99264.03;6322753;28;20310;-35
2023/02/15 02:45:59;;;;;;;22.23;14.40;;;;;;;2.52;69.59;99264.59;6327833;28;20229;-35
2023/02/15 02:49:02;;;;;;;20.00;13.47;;;;;;;2.50;69.52;99251.56;6286390;28;20226;-35
2023/02/15 02:52:27;;;;;;;24.27;15.07;;;;;;;2.55;69.54;99253.75;6340289;27;20281;-35
2023/02/15 02:55:45;;;;;;;20.93;13.43;;;;;;;2.61;69.45;99245.25;6314667;27;20706;-35
2023/02/15 02:58:59;;;;;;;21.53;14.53;;;;;;;2.62;69.21;99243.44;6336080;27;20236;-35
2023/02/15 03:02:13;;;;;;;19.30;12.93;;;;;;;2.59;69.37;99244.56;6354095;27;20225;-35
2023/02/15 03:05:21;;;;;;;23.87;14.10;;;;;;;2.55;69.32;99244.03;6329034;27;20252;-35
2023/02/15 03:08:27;;;;;;;22.53;14.30;;;;;;;2.54;69.77;99238.94;6315241;28;20233;-35
2023/02/15 03:11:30;;;;;;;21.73;13.63;;;;;;;2.56;69.90;99234.34;6303710;27;20224;-34
2023/02/15 03:14:32;;;;;;;19.17;12.57;;;;;;;2.57;69.70;99233.38;6348660;27;20235;-35
2023/02/15 03:17:40;;;;;;;20.07;14.43;;;;;;;2.58;69.79;99238.47;6316006;27;20244;-35
2023/02/15 03:20:44;;;;;;;22.00;14.03;;;;;;;2.64;69.56;99234.41;6319506;28;20230;-35
2023/02/15 03:23:57;;;;;;;22.77;14.90;;;;;;;2.67;69.50;99230.66;6324748;28;20334;-35
2023/02/15 03:27:06;;;;;;;21.27;13.90;;;;;;;2.64;69.14;99233.59;6332916;27;20373;-35
2023/02/15 03:30:10;;;;;;;20.40;13.17;;;;;;;2.65;69.19;99235.22;6338871;27;20714;-35
2023/02/15 03:33:14;;;;;;;24.03;14.63;;;;;;;2.63;69.26;99235.41;6346771;27;20785;-36
2023/02/15 03:36:26;;;;;;;22.13;14.47;;;;;;;2.66;69.32;99231.63;6344329;27;20216;-35
2023/02/15 03:39:40;;;;;;;21.40;14.30;;;;;;;2.67;69.64;99235.94;6352253;27;20694;-35
2023/02/15 03:42:44;;;;;;;19.87;13.17;;;;;;;2.68;69.51;99237.56;6330347;27;20743;-35
2023/02/15 03:45:56;;;;;;;21.70;13.73;;;;;;;2.71;69.36;99238.09;6335974;27;20905;-35
2023/02/15 03:49:07;;;;;;;22.03;13.47;;;;;;;2.70;69.18;99239.06;6338345;27;20600;-35
2023/02/15 03:52:11;;;;;;;23.07;14.20;;;;;;;2.73;69.47;99237.94;6353722;27;20294;-35
2023/02/15 03:55:13;;;;;;;21.63;14.43;;;;;;;2.76;69.31;99238.47;6353362;27;20232;-35
2023/02/15 04:01:59;;;;;;;25.37;15.67;;;;;;;2.73;68.81;99240.56;6330060;27;20701;-35
2023/02/15 04:05:01;;;;;;;19.20;13.37;;;;;;;2.72;68.89;99238.94;6302760;28;20233;-35
2023/02/15 04:08:03;;;;;;;21.43;13.90;;;;;;;2.68;68.99;99227.03;6348067;27;20724;-35
2023/02/15 04:11:05;;;;;;;20.07;14.03;;;;;;;2.75;69.04;99230.69;6340237;27;20233;-35
2023/02/15 04:17:28;;;;;;;21.87;14.67;;;;;;;2.64;69.26;99223.88;6331244;27;20226;-35
2023/02/15 04:27:11;;;;;;;23.50;14.63;;;;;;;2.62;69.42;99225.03;6352667;27;20710;-35
2023/02/15 04:30:15;;;;;;;22.43;13.97;;;;;;;2.63;69.53;99237.22;6336067;27;20228;-35
2023/02/15 04:33:17;;;;;;;21.23;14.30;;;;;;;2.64;69.76;99223.88;6332158;28;20193;-35
2023/02/15 04:36:19;;;;;;;22.47;14.73;;;;;;;2.67;69.73;99214.88;6299575;28;20202;-35
2023/02/15 04:39:21;;;;;;;21.33;13.93;;;;;;;2.70;69.69;99222.44;6331409;28;20646;-35
2023/02/15 04:42:23;;;;;;;19.23;13.50;;;;;;;2.66;69.52;99219.31;6323405;28;20224;-35
2023/02/15 04:45:26;;;;;;;18.87;12.73;;;;;;;2.65;69.60;99220.28;6327394;28;20612;-35
2023/02/15 04:48:29;;;;;;;22.07;14.20;;;;;;;2.62;69.93;99219.78;6327440;28;20689;-35
2023/02/15 04:51:31;;;;;;;19.47;13.50;;;;;;;2.57;69.70;99220.22;6320455;28;20233;-35
2023/02/15 04:54:33;;;;;;;20.77;13.37;;;;;;;2.55;70.16;99219.53;6309376;28;20733;-35
2023/02/15 04:57:34;;;;;;;20.87;13.40;;;;;;;2.55;70.31;99224.81;6324319;28;20230;-35
2023/02/15 05:00:36;;;;;;;20.27;13.60;;;;;;;2.52;70.21;99227.75;6326889;28;20254;-35
2023/02/15 05:03:38;;;;;;;20.03;13.37;;;;;;;2.53;70.32;99230.22;6301498;28;20256;-35
2023/02/15 05:06:40;;;;;;;19.23;12.77;;;;;;;2.51;70.38;99224.31;6315153;28;20229;-35
2023/02/15 05:09:43;;;;;;;20.00;12.60;;;;;;;2.50;70.52;99222.63;6304095;28;20229;-35
2023/02/15 05:12:45;;;;;;;22.27;13.67;;;;;;;2.52;70.39;99223.31;6300219;28;20237;-35
2023/02/15 05:15:48;;;;;;;19.10;12.27;;;;;;;2.54;70.39;99217.91;6305278;28;20241;-34
2023/02/15 05:18:51;;;;;;;21.27;13.13;;;;;;;2.47;70.33;99208.97;6310702;28;20306;-35
2023/02/15 05:21:53;;;;;;;19.60;12.67;;;;;;;2.54;70.43;99223.97;6327039;28;20232;-35
2023/02/15 05:28:22;;;;;;;19.20;12.33;;;;;;;2.55;70.41;99230.06;6302998;28;20325;-35
2023/02/15 05:31:24;;;;;;;19.50;12.37;;;;;;;2.55;70.29;99224.81;6342617;28;20583;-35
2023/02/15 05:34:26;;;;;;;20.33;12.73;;;;;;;2.55;70.36;99225.63;6349971;28;20607;-35
2023/02/15 05:37:28;;;;;;;20.67;13.23;;;;;;;2.58;70.40;99225.34;6352783;28;20772;-35
2023/02/15 05:40:30;;;;;;;20.87;13.20;;;;;;;2.61;70.28;99232.09;6339678;28;20718;-36
2023/02/15 05:43:32;;;;;;;19.37;12.70;;;;;;;2.63;70.24;99229.31;6327899;28;20240;-35
2023/02/15 05:46:34;;;;;;;21.27;12.97;;;;;;;2.64;70.61;99230.97;6337688;28;20692;-35
2023/02/15 05:49:36;;;;;;;22.80;14.83;;;;;;;2.64;70.53;99234.41;6333231;28;20611;-35
2023/02/15 05:52:38;;;;;;;23.93;15.23;;;;;;;2.62;70.18;99233.75;6351299;28;20807;-35
2023/02/15 05:55:41;;;;;;;25.03;16.27;;;;;;;2.47;69.91;99207.16;6329193;28;20373;-35
2023/02/15 05:58:43;;;;;;;21.33;14.77;;;;;;;2.56;70.03;99229.06;6333167;28;20242;-35
2023/02/15 06:01:45;;;;;;;24.53;15.73;;;;;;;2.54;70.04;99231.03;6331264;28;20244;-35
2023/02/15 06:04:47;;;;;;;27.07;16.33;;;;;;;2.52;70.14;99239.09;6340909;28;20645;-40
2023/02/15 06:07:49;;;;;;;23.27;14.53;;;;;;;2.19;70.02;99181.94;6346344;28;20228;-35
2023/02/15 06:10:51;;;;;;;23.80;15.67;;;;;;;2.29;69.60;99201.09;6336690;28;20276;-34
2023/02/15 06:13:53;;;;;;;25.53;16.67;;;;;;;2.55;70.09;99241.41;6351232;28;20599;-35
2023/02/15 06:16:55;;;;;;;24.90;16.33;;;;;;;2.57;70.04;99246.53;6334513;28;20754;-35
2023/02/15 06:19:57;;;;;;;23.70;15.77;;;;;;;2.59;69.85;99239.31;6331347;27;20579;-35
2023/02/15 06:22:59;;;;;;;25.73;15.60;;;;;;;2.59;69.65;99247.19;6340026;27;20232;-35
2023/02/15 06:26:01;;;;;;;25.73;15.73;;;;;;;2.61;69.75;99254.94;6329511;28;20605;-35
2023/02/15 06:29:03;;;;;;;26.13;16.07;;;;;;;2.65;69.68;99248.38;6350344;27;20231;-35
2023/02/15 06:32:06;;;;;;;26.93;17.57;;;;;;;2.59;69.31;99253.28;6355921;27;20231;-35
2023/02/15 06:35:08;;;;;;;26.70;16.73;;;;;;;2.56;69.22;99261.50;6343221;27;20231;-35
2023/02/15 06:38:11;;;;;;;24.07;15.40;;;;;;;2.56;69.07;99253.59;6322468;27;20231;-35
2023/02/15 06:41:13;;;;;;;24.93;15.77;;;;;;;2.60;69.44;99256.72;6346455;27;20622;-35
2023/02/15 06:44:15;;;;;;;24.30;16.03;;;;;;;2.62;69.31;99260.06;6354488;27;20365;-35
2023/02/15 06:47:17;;;;;;;24.87;16.33;;;;;;;2.66;69.30;99252.66;6355481;27;20384;-35
2023/02/15 06:50:19;;;;;;;25.03;17.13;;;;;;;2.68;68.83;99250.72;6313664;28;20294;-35
2023/02/15 06:53:21;;;;;;;24.77;16.03;;;;;;;2.65;69.12;99245.75;6333827;27;20604;-35
2023/02/15 06:56:23;;;;;;;26.13;16.20;;;;;;;2.67;69.26;99246.44;6348450;27;20319;-35
2023/02/15 06:59:25;;;;;;;30.00;18.60;;;;;;;2.57;68.82;99236.84;6344332;27;20235;-35
2023/02/15 07:02:28;;;;;;;27.40;17.80;;;;;;;2.57;68.52;99246.53;6340855;27;20239;-35
2023/02/15 07:05:33;;;;;;;26.93;16.50;;;;;;;2.36;68.87;99214.44;6345291;27;20231;-34
2023/02/15 07:08:37;;;;;;;29.67;17.60;;;;;;;2.56;69.00;99232.56;6352693;27;20239;-35
2023/02/15 07:14:59;;;;;;;28.80;17.23;;;;;;;2.58;69.13;99229.78;6353728;27;20884;-35
2023/02/15 07:18:01;;;;;;;28.57;16.77;;;;;;;2.60;69.10;99235.69;6348798;27;20760;-35
2023/02/15 07:21:04;;;;;;;27.03;16.93;;;;;;;2.68;68.82;99235.75;6352037;27;20783;-35
2023/02/15 07:24:06;;;;;;;22.83;15.67;;;;;;;2.76;68.62;99225.31;6354010;27;20693;-35
2023/02/15 07:27:08;;;;;;;25.00;16.00;;;;;;;2.79;68.21;99232.88;6340043;27;20307;-34
2023/02/15 07:30:12;;;;;;;28.13;17.70;;;;;;;2.84;68.56;99227.16;6334216;27;20232;-35
2023/02/15 07:33:23;;;;;;;29.90;17.30;;;;;;;2.68;68.59;99230.50;6323418;28;20209;-35
2023/02/15 07:36:26;;;;;;;27.20;17.73;;;;;;;2.76;68.67;99227.94;6328606;28;20234;-35
2023/02/15 07:39:27;;;;;;;27.53;18.33;;;;;;;2.75;68.24;99231.53;6327581;28;20229;-35
2023/02/15 07:42:30;;;;;;;27.47;18.33;;;;;;;2.71;68.10;99232.84;6303925;28;20221;-35
2023/02/15 07:45:32;;;;;;;22.50;15.03;;;;;;;2.73;68.23;99230.88;6280975;28;20229;-35
2023/02/15 07:48:36;;;;;;;23.67;16.13;;;;;;;2.79;67.81;99238.13;6326956;28;20690;-35
2023/02/15 07:51:38;;;;;;;23.57;15.93;;;;;;;2.87;67.72;99239.19;6328026;28;20220;-35
2023/02/15 07:54:40;;;;;;;26.27;17.10;;;;;;;2.91;67.61;99233.47;6325930;28;20229;-35
2023/02/15 07:57:45;;;;;;;27.77;17.20;;;;;;;2.82;67.77;99243.09;6316302;28;20798;-35
2023/02/15 08:00:56;;;;;;;28.13;17.63;;;;;;;2.88;67.87;99232.94;6319197;28;20619;-35
2023/02/15 08:03:58;;;;;;;28.73;18.00;;;;;;;2.70;67.54;99214.56;6310706;28;20275;-35
2023/02/15 08:07:01;;;;;;;27.03;17.50;;;;;;;2.89;67.87;99237.22;6327666;28;20228;-35
2023/02/15 08:10:03;;;;;;;27.97;17.57;;;;;;;2.84;67.81;99232.41;6326689;28;20270;-35
2023/02/15 08:13:05;;;;;;;24.73;16.20;;;;;;;2.90;68.09;99229.16;6327712;28;20228;-35
2023/02/15 08:16:07;;;;;;;28.30;17.77;;;;;;;2.94;67.68;99227.88;6307038;28;20233;-35
2023/02/15 08:19:22;;;;;;;25.23;16.70;;;;;;;2.98;67.67;99237.13;6304982;28;20237;-35
2023/02/15 08:22:26;;;;;;;26.77;16.67;;;;;;;3.04;67.40;99235.69;6311466;28;20336;-35
2023/02/15 08:25:28;;;;;;;26.77;16.90;;;;;;;3.12;67.21;99241.00;6327293;28;20267;-35
2023/02/15 08:28:30;;;;;;;28.77;18.77;;;;;;;3.19;66.89;99244.66;6323427;28;20236;-35
2023/02/15 08:31:34;;;;;;;29.53;17.73;;;;;;;3.20;66.82;99243.69;6345791;27;20368;-35
2023/02/15 08:34:39;;;;;;;26.83;16.57;;;;;;;3.08;66.45;99218.59;6347162;27;20233;-35
2023/02/15 08:37:41;;;;;;;27.63;17.70;;;;;;;3.30;66.07;99236.50;6306202;27;20311;-35
2023/02/15 08:40:44;;;;;;;26.93;17.43;;;;;;;3.27;66.15;99236.81;6339922;27;20373;-35
2023/02/15 08:43:50;;;;;;;23.87;16.47;;;;;;;3.25;65.94;99232.66;6334862;27;20367;-35
2023/02/15 08:46:53;;;;;;;26.87;17.87;;;;;;;3.18;66.00;99229.00;6347851;27;20223;-35
2023/02/15 08:49:55;;;;;;;30.00;18.63;;;;;;;3.03;66.40;99224.31;6353076;27;20707;-35
2023/02/15 08:52:57;;;;;;;26.50;17.77;;;;;;;3.03;66.04;99194.53;6335190;27;20700;-34
2023/02/15 08:55:59;;;;;;;27.20;17.20;;;;;;;3.40;65.96;99230.25;6335854;27;20762;-35
2023/02/15 08:59:03;;;;;;;24.70;16.87;;;;;;;3.40;65.02;99217.09;6331306;27;20231;-36
2023/02/15 09:02:05;;;;;;;26.77;16.80;;;;;;;3.53;65.38;99225.38;6352468;27;20910;-35
2023/02/15 09:05:07;;;;;;;27.17;17.40;;;;;;;3.70;65.24;99227.13;6332732;28;20757;-35
2023/02/15 09:08:09;;;;;;;24.70;16.30;;;;;;;3.82;64.44;99220.56;6352332;27;20737;-35
2023/02/15 09:11:22;;;;;;;29.07;18.50;;;;;;;3.90;64.13;99224.22;6337831;27;20579;-35
2023/02/15 09:14:25;;;;;;;28.33;17.03;;;;;;;3.88;64.21;99219.91;6352085;27;20225;-35
2023/02/15 09:17:27;;;;;;;27.63;17.03;;;;;;;3.93;64.08;99223.88;6344354;27;21149;-35
2023/02/15 09:20:29;;;;;;;27.50;16.37;;;;;;;3.72;63.62;99190.88;6352008;27;20612;-35
2023/02/15 09:23:32;;;;;;;27.97;17.63;;;;;;;3.92;64.11;99223.03;6351547;28;20373;-35
2023/02/15 09:26:37;;;;;;;27.33;17.90;;;;;;;3.66;63.63;99191.53;6331153;28;20229;-35
2023/02/15 09:29:39;;;;;;;27.43;16.57;;;;;;;3.78;63.76;99198.13;6336876;28;20232;-35
2023/02/15 09:32:41;;;;;;;27.40;16.63;;;;;;;3.97;63.67;99219.94;6349085;28;20703;-35
2023/02/15 09:35:43;;;;;;;27.80;18.27;;;;;;;4.12;63.50;99210.41;6351682;28;20236;-35
2023/02/15 09:38:46;;;;;;;26.33;17.00;;;;;;;4.30;63.42;99216.38;6347248;28;20308;-35
2023/02/15 09:42:07;;;;;;;26.00;17.33;;;;;;;4.31;62.92;99210.09;6344422;28;20584;-35
2023/02/15 09:45:33;;;;;;;28.87;18.23;;;;;;;4.34;62.23;99207.13;6311925;28;20230;-35
2023/02/15 09:48:40;;;;;;;29.03;18.23;;;;;;;4.43;62.61;99205.31;6329369;28;20733;-35
2023/02/15 09:51:48;;;;;;;30.07;18.37;;;;;;;4.25;62.16;99188.81;6341239;27;20309;-35
2023/02/15 09:55:06;;;;;;;30.67;18.63;;;;;;;4.14;61.91;99211.06;6337601;27;20730;-35
2023/02/15 09:58:32;;;;;;;29.70;18.93;;;;;;;4.11;62.41;99196.38;6330262;28;20728;-35
2023/02/15 10:01:50;;;;;;;26.17;17.37;;;;;;;4.08;63.32;99201.16;6322411;28;20231;-35
2023/02/15 10:05:16;;;;;;;26.67;16.30;;;;;;;4.43;62.91;99196.56;6315434;28;20605;-35
2023/02/15 10:08:40;;;;;;;25.43;16.20;;;;;;;4.73;61.64;99190.63;6321419;28;20595;-35
2023/02/15 10:11:42;;;;;;;23.83;16.67;;;;;;;4.97;60.46;99202.13;6314645;28;20241;-35
2023/02/15 10:14:56;;;;;;;26.20;17.03;;;;;;;4.93;59.92;99199.00;6325179;28;20741;-35
2023/02/15 10:18:26;;;;;;;24.23;15.77;;;;;;;4.96;59.63;99197.84;6312389;27;20241;-36
2023/02/15 10:22:06;;;;;;;24.73;16.20;;;;;;;5.09;59.23;99198.16;6334034;27;20234;-35
2023/02/15 10:25:29;;;;;;;24.13;16.00;;;;;;;5.20;59.28;99194.31;6356404;27;20218;-35
2023/02/15 10:28:42;;;;;;;25.37;16.97;;;;;;;4.99;59.24;99194.88;6355136;27;20239;-36
2023/02/15 10:31:52;;;;;;;24.57;15.77;;;;;;;4.74;60.16;99187.00;6309965;28;22146;-35
2023/02/15 10:35:23;;;;;;;24.17;16.07;;;;;;;4.87;60.16;99178.53;6328811;28;20320;-35
2023/02/15 10:38:47;;;;;;;27.60;17.40;;;;;;;5.15;59.56;99185.06;6284526;28;20610;-35
2023/02/15 10:42:13;;;;;;;24.20;16.43;;;;;;;5.24;59.30;99175.31;6311975;28;20237;-35
2023/02/15 10:45:16;;;;;;;26.27;16.07;;;;;;;5.30;59.19;99177.25;6314099;28;20689;-35
2023/02/15 10:48:47;;;;;;;25.83;16.77;;;;;;;5.18;59.00;99171.53;6331425;28;20212;-35
2023/02/15 10:52:10;;;;;;;23.50;15.60;;;;;;;5.35;58.96;99169.66;6329526;28;20713;-35
2023/02/15 10:55:18;;;;;;;26.60;16.77;;;;;;;5.49;58.36;99160.19;6279579;28;20376;-35
2023/02/15 10:58:26;;;;;;;25.63;16.17;;;;;;;5.52;58.06;99151.09;6330278;28;20590;-35
2023/02/15 11:01:38;;;;;;;31.03;17.57;;;;;;;5.56;57.69;99147.09;6329503;28;20240;-35
2023/02/15 11:05:10;;;;;;;25.27;15.80;;;;;;;5.89;56.94;99143.25;6295501;28;20240;-35
2023/02/15 11:08:13;;;;;;;24.53;15.97;;;;;;;5.87;57.15;99136.50;6315147;28;20234;-36
2023/02/15 11:11:32;;;;;;;22.53;16.03;;;;;;;5.97;56.87;99134.47;6313544;28;20594;-35
2023/02/15 11:14:55;;;;;;;28.77;17.33;;;;;;;6.03;56.88;99128.47;6319740;28;20748;-36
2023/02/15 11:18:11;;;;;;;23.97;16.23;;;;;;;5.92;57.12;99131.53;6297986;28;20239;-35
2023/02/15 11:21:32;;;;;;;21.93;15.47;;;;;;;5.97;57.02;99137.13;6317777;28;20710;-35
2023/02/15 11:24:41;;;;;;;28.63;17.27;;;;;;;5.88;56.75;99135.50;6329133;28;20227;-35
2023/02/15 11:27:46;;;;;;;29.33;17.73;;;;;;;5.68;57.29;99124.56;6319560;28;20225;-35
2023/02/15 11:30:55;;;;;;;25.07;16.03;;;;;;;5.41;57.50;99086.22;6310615;28;20238;-35
2023/02/15 11:34:06;;;;;;;27.80;17.20;;;;;;;5.61;57.48;99123.59;6322556;28;20346;-35
2023/02/15 11:37:13;;;;;;;23.43;15.90;;;;;;;5.70;57.32;99119.91;6305554;28;20225;-36
2023/02/15 11:40:35;;;;;;;25.57;16.47;;;;;;;6.05;57.18;99129.13;6319995;28;20638;-35
2023/02/15 11:43:44;;;;;;;25.83;16.60;;;;;;;6.38;56.53;99127.03;6327615;28;20234;-35
2023/02/15 11:46:46;;;;;;;24.40;15.93;;;;;;;6.59;55.59;99123.69;6302331;28;20229;-35
2023/02/15 11:49:48;;;;;;;25.27;16.30;;;;;;;6.92;54.69;99118.06;6325623;28;20231;-35
2023/02/15 11:53:01;;;;;;;23.50;15.73;;;;;;;6.97;54.35;99119.16;6327632;28;20703;-35
2023/02/15 11:56:04;;;;;;;24.13;16.10;;;;;;;7.15;54.18;99102.88;6331441;28;20782;-35
2023/02/15 11:59:24;;;;;;;26.43;17.60;;;;;;;7.14;54.12;99103.03;6327483;28;20261;-35
2023/02/15 12:02:29;;;;;;;23.43;15.50;;;;;;;7.24;53.49;99104.44;6317444;28;20273;-35
2023/02/15 12:05:32;;;;;;;26.50;16.70;;;;;;;6.83;53.47;99085.53;6300908;28;20234;-35
2023/02/15 12:08:46;;;;;;;23.83;16.27;;;;;;;6.75;54.33;99106.84;6302827;28;20354;-35
2023/02/15 12:11:48;;;;;;;26.20;17.23;;;;;;;6.72;54.69;99104.53;6323087;28;20234;-35
2023/02/15 12:14:55;;;;;;;22.63;16.10;;;;;;;6.85;54.67;99103.91;6325291;28;20235;-35
2023/02/15 12:17:57;;;;;;;26.50;16.20;;;;;;;6.66;53.96;99047.00;6301949;28;20586;-35
2023/02/15 12:21:03;;;;;;;24.50;17.23;;;;;;;7.22;53.53;99105.59;6304331;28;20233;-35
2023/02/15 12:24:21;;;;;;;30.27;18.10;;;;;;;7.11;53.87;99098.13;6349604;27;20236;-35
2023/02/15 12:27:35;;;;;;;25.37;16.53;;;;;;;7.08;53.84;99086.06;6348328;27;20232;-35
2023/02/15 12:30:37;;;;;;;23.80;15.67;;;;;;;7.25;53.96;99081.41;6337262;27;20224;-36
2023/02/15 12:33:45;;;;;;;25.33;17.07;;;;;;;7.34;53.22;99088.25;6350971;27;20741;-35
2023/02/15 12:36:54;;;;;;;25.00;16.73;;;;;;;7.04;53.21;99053.00;6340909;27;20240;-35
2023/02/15 12:40:01;;;;;;;26.37;17.03;;;;;;;7.25;53.23;99078.75;6332179;27;20773;-35
2023/02/15 12:43:08;;;;;;;23.23;16.70;;;;;;;7.05;53.27;99070.56;6345173;27;20392;-35
2023/02/15 12:46:23;;;;;;;28.10;19.30;;;;;;;6.63;54.63;99073.84;6352672;27;20250;-36
2023/02/15 12:49:28;;;;;;;28.13;18.93;;;;;;;6.35;55.70;99068.34;6334174;27;20220;-35
2023/02/15 12:52:30;;;;;;;32.43;21.20;;;;;;;6.38;55.74;99071.44;6351989;27;20231;-35
2023/02/15 12:55:32;;;;;;;32.63;20.87;;;;;;;6.45;55.44;99047.72;6327562;27;20301;-35
2023/02/15 12:58:39;;;;;;;34.10;22.77;;;;;;;6.61;55.38;99068.75;6349091;27;20339;-35
2023/02/15 13:01:42;;;;;;;36.87;24.53;;;;;;;6.42;55.79;99064.78;6351594;27;20234;-35
2023/02/15 13:04:49;;;;;;;37.70;24.23;;;;;;;6.29;55.81;99058.47;6351307;27;20231;-35
2023/02/15 13:07:58;;;;;;;37.90;26.27;;;;;;;6.01;55.67;99007.97;6351635;27;20255;-35
2023/02/15 13:11:07;;;;;;;34.30;23.17;;;;;;;6.42;55.44;99053.38;6339164;27;20275;-35
2023/02/15 13:14:33;;;;;;;45.77;28.60;;;;;;;6.39;55.46;99049.25;6334579;27;20228;-35
2023/02/15 13:17:35;;;;;;;38.87;26.13;;;;;;;6.43;55.37;99050.56;6336030;27;20795;-35
2023/02/15 13:20:40;;;;;;;41.27;27.10;;;;;;;6.36;55.87;99048.81;6351816;27;20251;-35
2023/02/15 13:23:48;;;;;;;43.47;26.80;;;;;;;6.30;55.99;99045.06;6350651;28;20232;-35
2023/02/15 13:26:54;;;;;;;38.63;25.23;;;;;;;6.26;56.48;99040.31;6360158;27;20691;-36
2023/02/15 13:30:19;;;;;;;45.57;28.43;;;;;;;6.15;56.22;99036.28;6335240;27;20272;-35
2023/02/15 13:33:36;;;;;;;39.73;24.70;;;;;;;5.65;57.25;99005.94;6333645;28;20232;-35
2023/02/15 13:36:43;;;;;;;37.67;24.13;;;;;;;5.77;57.57;99035.44;6357497;27;20596;-35
2023/02/15 13:39:54;;;;;;;35.30;22.77;;;;;;;5.86;57.47;99039.63;6355229;27;20221;-35
2023/02/15 13:43:33;;;;;;;34.27;22.30;;;;;;;6.01;57.16;99026.47;6353641;27;20749;-35
2023/02/15 13:46:51;;;;;;;37.03;24.07;;;;;;;5.47;57.65;98998.31;6334525;27;20243;-35
2023/02/15 13:50:30;;;;;;;40.33;25.33;;;;;;;5.59;58.37;99030.44;6354389;27;20322;-35
2023/02/15 13:53:43;;;;;;;34.93;22.50;;;;;;;5.70;58.08;99037.94;6340034;27;20223;-35
2023/02/15 13:57:24;;;;;;;35.10;21.97;;;;;;;5.84;58.01;99031.06;6353926;27;20810;-35
2023/02/15 14:00:42;;;;;;;32.93;21.87;;;;;;;5.93;57.69;99020.28;6359491;27;20244;-35
2023/02/15 14:04:01;;;;;;;36.53;22.90;;;;;;;5.98;57.48;99030.31;6323765;28;20604;-35
2023/02/15 14:07:21;;;;;;;39.50;24.17;;;;;;;6.04;57.40;99023.50;6353587;27;20596;-35
2023/02/15 14:10:44;;;;;;;35.50;21.90;;;;;;;6.01;57.48;99023.84;6341207;27;20707;-35
2023/02/15 14:14:20;;;;;;;33.97;21.73;;;;;;;5.98;57.49;99024.22;6359294;27;20300;-35
2023/02/15 14:17:38;;;;;;;36.47;24.57;;;;;;;5.70;58.16;99009.69;6349184;27;20234;-35
2023/02/15 14:20:50;;;;;;;36.77;23.50;;;;;;;5.60;58.42;99016.22;6338467;27;20235;-35
2023/02/15 14:24:01;;;;;;;36.40;23.67;;;;;;;5.53;59.05;99015.28;6350681;27;20375;-35
2023/02/15 14:27:23;;;;;;;34.63;22.57;;;;;;;5.35;59.49;99028.78;6358500;27;20237;-35
2023/02/15 14:30:36;;;;;;;34.50;22.67;;;;;;;5.26;59.84;99009.50;6352844;27;20690;-35
2023/02/15 14:33:42;;;;;;;34.17;21.93;;;;;;;5.02;60.09;98975.31;6355495;27;20233;-35
2023/02/15 14:36:44;;;;;;;34.77;21.80;;;;;;;5.29;59.95;99016.28;6334220;27;20312;-35
2023/02/15 14:43:50;;;;;;;32.03;21.47;;;;;;;5.29;59.97;99009.16;6336434;27;20312;-35
2023/02/15 14:47:11;;;;;;;29.97;19.93;;;;;;;5.12;60.52;99007.59;6355819;27;20314;-35
2023/02/15 14:50:33;;;;;;;30.90;20.67;;;;;;;4.97;61.05;99009.34;6338648;27;20660;-35
2023/02/15 14:53:38;;;;;;;29.87;19.33;;;;;;;4.90;61.41;99003.94;6356193;27;20739;-36
2023/02/15 14:56:40;;;;;;;31.00;20.10;;;;;;;4.84;61.71;99000.19;6313432;27;20229;-35
2023/02/15 14:59:57;;;;;;;25.97;17.63;;;;;;;4.59;61.90;98967.78;6355317;27;20762;-35